createdAt,value
2023-01-31T00:01:35.098Z,0.77
2023-01-31T00:04:04.326Z,0.60
2023-01-31T00:06:33.016Z,0.70
2023-01-31T00:09:01.263Z,0.68
2023-01-31T00:11:29.382Z,1.17
2023-01-31T00:13:57.276Z,1.15
2023-01-31T00:16:23.981Z,0.70
2023-01-31T00:18:50.691Z,0.50
2023-01-31T00:21:20.129Z,0.85
2023-01-31T00:23:48.067Z,0.85
2023-01-31T00:26:22.948Z,0.73
2023-01-31T00:28:51.033Z,0.57
2023-01-31T00:31:18.582Z,0.77
2023-01-31T00:33:46.447Z,0.47
2023-01-31T00:36:15.489Z,0.57
2023-01-31T00:38:42.603Z,0.73
2023-01-31T00:41:09.392Z,0.60
2023-01-31T00:43:36.098Z,0.97
2023-01-31T00:46:03.232Z,0.63
2023-01-31T00:48:30.064Z,0.40
2023-01-31T00:50:56.561Z,0.30
2023-01-31T00:53:23.896Z,0.77
2023-01-31T00:55:52.252Z,1.10
2023-01-31T00:58:19.238Z,0.65
2023-01-31T01:00:45.769Z,1.10
2023-01-31T01:03:12.559Z,0.55
2023-01-31T01:05:39.003Z,0.60
2023-01-31T01:08:05.836Z,0.80
2023-01-31T01:10:32.656Z,0.75
2023-01-31T01:12:59.034Z,0.88
2023-01-31T01:15:25.436Z,0.40
2023-01-31T01:17:52.009Z,0.93
2023-01-31T01:20:18.537Z,0.80
2023-01-31T01:22:44.932Z,0.45
2023-01-31T01:25:11.453Z,0.90
2023-01-31T01:27:37.809Z,0.70
2023-01-31T01:30:06.244Z,0.93
2023-01-31T01:32:33.120Z,0.73
2023-01-31T01:34:59.747Z,1.23
2023-01-31T01:37:26.155Z,0.75
2023-01-31T01:39:53.679Z,0.60
2023-01-31T01:42:23.366Z,0.80
2023-01-31T01:44:59.026Z,0.97
2023-01-31T01:47:35.373Z,0.77
2023-01-31T01:50:07.769Z,0.60
2023-01-31T01:52:39.293Z,0.50
2023-01-31T01:55:31.771Z,0.60
2023-01-31T01:58:06.158Z,0.90
2023-01-31T02:00:34.960Z,0.73
2023-01-31T02:03:05.116Z,0.75
2023-01-31T02:05:36.928Z,0.30
2023-01-31T02:08:03.985Z,0.93
2023-01-31T02:10:36.084Z,1.10
2023-01-31T02:13:03.100Z,0.60
2023-01-31T02:15:31.580Z,0.75
2023-01-31T02:17:58.039Z,1.17
2023-01-31T02:21:11.436Z,0.70
2023-01-31T02:24:08.054Z,0.60
2023-01-31T02:26:55.565Z,0.50
2023-01-31T02:29:21.873Z,0.80
2023-01-31T02:32:10.678Z,0.80
2023-01-31T02:35:06.961Z,0.80
2023-01-31T02:37:51.637Z,0.90
2023-01-31T02:40:58.634Z,0.60
2023-01-31T02:44:01.958Z,1.52
2023-01-31T02:46:42.143Z,0.73
2023-01-31T02:49:34.651Z,1.25
2023-01-31T02:52:49.109Z,0.97
2023-01-31T02:55:53.931Z,0.90
2023-01-31T02:58:23.096Z,1.35
2023-01-31T03:00:49.843Z,1.05
2023-01-31T03:03:26.693Z,1.73
2023-01-31T03:06:23.062Z,1.00
2023-01-31T03:09:08.808Z,1.15
2023-01-31T03:11:56.583Z,1.67
2023-01-31T03:14:27.278Z,1.23
2023-01-31T03:17:33.310Z,1.65
2023-01-31T03:20:12.130Z,1.57
2023-01-31T03:22:46.419Z,2.10
2023-01-31T03:25:17.097Z,1.48
2023-01-31T03:27:48.940Z,0.90
2023-01-31T03:30:21.141Z,1.20
2023-01-31T03:32:58.941Z,2.07
2023-01-31T03:35:30.108Z,2.03
2023-01-31T03:38:14.458Z,1.50
2023-01-31T03:40:49.724Z,2.40
2023-01-31T03:43:22.605Z,1.38
2023-01-31T03:46:12.893Z,1.67
2023-01-31T03:48:43.560Z,1.90
2023-01-31T03:51:16.448Z,1.58
2023-01-31T03:53:51.422Z,1.27
2023-01-31T03:56:30.938Z,2.00
2023-01-31T03:59:08.298Z,2.20
2023-01-31T04:01:39.428Z,2.47
2023-01-31T04:04:11.736Z,1.63
2023-01-31T04:06:38.475Z,1.45
2023-01-31T04:09:06.367Z,2.00
2023-01-31T04:11:40.326Z,2.43
2023-01-31T04:14:07.446Z,2.75
2023-01-31T04:16:33.828Z,2.47
2023-01-31T04:19:00.211Z,3.30
2023-01-31T04:21:26.746Z,2.85
2023-01-31T04:23:53.117Z,1.83
2023-01-31T04:26:19.635Z,2.20
2023-01-31T04:28:46.005Z,2.28
2023-01-31T04:31:12.557Z,2.85
2023-01-31T04:33:39.045Z,2.63
2023-01-31T04:36:05.996Z,2.00
2023-01-31T04:38:32.390Z,2.03
2023-01-31T04:40:59.943Z,2.50
2023-01-31T04:43:26.318Z,2.70
2023-01-31T04:45:52.699Z,2.42
2023-01-31T04:48:19.197Z,2.50
2023-01-31T04:50:46.046Z,2.65
2023-01-31T04:53:12.427Z,2.75
2023-01-31T04:55:38.894Z,3.53
2023-01-31T04:58:06.799Z,1.83
2023-01-31T05:00:34.039Z,3.27
2023-01-31T05:03:01.313Z,2.35
2023-01-31T05:05:28.026Z,3.33
2023-01-31T05:07:54.414Z,2.38
2023-01-31T05:10:20.799Z,2.67
2023-01-31T05:12:47.163Z,2.87
2023-01-31T05:15:13.709Z,3.05
2023-01-31T05:17:40.143Z,2.53
2023-01-31T05:20:07.052Z,2.65
2023-01-31T05:22:33.869Z,2.85
2023-01-31T05:25:00.234Z,2.97
2023-01-31T05:27:26.771Z,2.90
2023-01-31T05:29:53.636Z,3.65
2023-01-31T05:32:20.296Z,1.83
2023-01-31T05:34:46.711Z,2.30
2023-01-31T05:37:13.136Z,2.80
2023-01-31T05:39:39.907Z,3.63
2023-01-31T05:42:06.570Z,2.42
2023-01-31T05:44:33.376Z,2.80
2023-01-31T05:47:01.356Z,3.20
2023-01-31T05:49:32.647Z,2.83
2023-01-31T05:52:00.782Z,2.60
2023-01-31T05:54:27.400Z,2.30
2023-01-31T05:56:53.818Z,2.30
2023-01-31T05:59:20.182Z,2.83
2023-01-31T06:01:47.772Z,2.60
2023-01-31T06:04:14.334Z,2.22
2023-01-31T06:06:40.787Z,2.70
2023-01-31T06:09:07.229Z,2.92
2023-01-31T06:11:33.645Z,3.15
2023-01-31T06:14:00.092Z,3.00
2023-01-31T06:16:26.933Z,2.55
2023-01-31T06:18:55.511Z,3.50
2023-01-31T06:21:21.906Z,2.60
2023-01-31T06:23:48.402Z,2.25
2023-01-31T06:26:15.135Z,2.90
2023-01-31T06:28:41.553Z,2.30
2023-01-31T06:31:12.109Z,2.33
2023-01-31T06:33:47.011Z,3.03
2023-01-31T06:36:16.033Z,2.65
2023-01-31T06:38:43.855Z,2.30
2023-01-31T06:41:10.259Z,2.05
2023-01-31T06:43:36.820Z,2.42
2023-01-31T06:46:03.505Z,2.92
2023-01-31T06:48:30.430Z,2.22
2023-01-31T06:50:57.485Z,2.33
2023-01-31T06:53:23.853Z,2.67
2023-01-31T06:55:50.232Z,2.63
2023-01-31T06:58:18.443Z,1.95
2023-01-31T07:00:46.018Z,2.75
2023-01-31T07:03:13.311Z,2.40
2023-01-31T07:05:39.708Z,1.63
2023-01-31T07:08:06.095Z,1.90
2023-01-31T07:10:32.587Z,2.42
2023-01-31T07:12:58.979Z,2.03
2023-01-31T07:15:25.360Z,2.10
2023-01-31T07:17:57.569Z,2.08
2023-01-31T07:20:23.930Z,2.22
2023-01-31T07:22:56.664Z,2.40
2023-01-31T07:25:23.245Z,2.42
2023-01-31T07:27:49.679Z,2.37
2023-01-31T07:30:16.226Z,2.40
2023-01-31T07:32:42.662Z,1.27
2023-01-31T07:35:09.569Z,2.10
2023-01-31T07:37:35.997Z,2.00
2023-01-31T07:40:02.402Z,2.20
2023-01-31T07:42:29.771Z,2.22
2023-01-31T07:44:56.301Z,2.00
2023-01-31T07:47:22.739Z,2.00
2023-01-31T07:49:50.581Z,2.22
2023-01-31T07:52:17.147Z,1.87
2023-01-31T07:54:43.643Z,1.90
2023-01-31T07:57:10.057Z,2.03
2023-01-31T07:59:36.432Z,1.42
2023-01-31T08:02:21.514Z,1.90
2023-01-31T08:04:47.945Z,1.87
2023-01-31T08:07:14.401Z,1.73
2023-01-31T08:09:43.442Z,1.95
2023-01-31T08:12:09.884Z,1.80
2023-01-31T08:14:36.501Z,1.60
2023-01-31T08:17:03.459Z,1.57
2023-01-31T08:19:30.542Z,2.10
2023-01-31T08:21:56.933Z,1.20
2023-01-31T08:24:23.288Z,2.05
2023-01-31T08:26:49.720Z,1.75
2023-01-31T08:29:16.364Z,1.60
2023-01-31T08:31:43.957Z,2.25
2023-01-31T08:34:10.731Z,2.22
2023-01-31T08:36:37.578Z,1.58
2023-01-31T08:39:04.766Z,1.73
2023-01-31T08:41:32.650Z,1.20
2023-01-31T08:44:00.004Z,1.35
2023-01-31T08:46:30.887Z,2.53
2023-01-31T08:48:58.427Z,2.40
2023-01-31T08:51:24.917Z,1.58
2023-01-31T08:53:51.434Z,1.27
2023-01-31T08:56:19.352Z,1.42
2023-01-31T08:58:45.736Z,1.50
2023-01-31T09:01:18.051Z,1.67
2023-01-31T09:03:45.977Z,1.42
2023-01-31T09:06:15.741Z,1.40
2023-01-31T09:08:42.185Z,1.33
2023-01-31T09:11:09.013Z,1.40
2023-01-31T09:13:36.009Z,1.73
2023-01-31T09:16:02.857Z,1.40
2023-01-31T09:18:30.036Z,1.23
2023-01-31T09:20:56.738Z,1.35
2023-01-31T09:23:23.267Z,0.90
2023-01-31T09:25:56.431Z,1.23
2023-01-31T09:28:23.820Z,1.40
2023-01-31T09:30:53.518Z,1.20
2023-01-31T09:33:21.424Z,1.75
2023-01-31T09:35:58.942Z,2.00
2023-01-31T09:38:25.758Z,1.42
2023-01-31T09:40:53.845Z,1.50
2023-01-31T09:43:24.262Z,1.07
2023-01-31T09:45:53.676Z,1.92
2023-01-31T09:48:24.206Z,1.85
2023-01-31T09:50:55.843Z,1.90
2023-01-31T09:53:26.321Z,1.83
2023-01-31T09:56:07.632Z,2.03
2023-01-31T09:58:50.706Z,1.65
2023-01-31T10:01:39.097Z,2.70
2023-01-31T10:04:20.271Z,2.83
2023-01-31T10:07:12.840Z,2.33
2023-01-31T10:09:48.885Z,1.80
2023-01-31T10:12:27.228Z,2.55
2023-01-31T10:15:14.815Z,2.80
2023-01-31T10:17:46.961Z,2.83
2023-01-31T10:20:32.747Z,2.22
2023-01-31T10:23:02.503Z,3.30
2023-01-31T10:25:44.089Z,1.85
2023-01-31T10:28:15.717Z,2.25
2023-01-31T10:30:51.668Z,2.33
2023-01-31T10:33:24.055Z,1.75
2023-01-31T10:35:54.623Z,2.50
2023-01-31T10:38:49.879Z,2.42
2023-01-31T10:41:22.764Z,2.13
2023-01-31T10:44:05.585Z,1.98
2023-01-31T10:46:32.462Z,1.90
2023-01-31T10:48:59.305Z,2.23
2023-01-31T10:51:31.829Z,2.38
2023-01-31T10:54:22.688Z,2.58
2023-01-31T10:56:49.468Z,1.85
2023-01-31T10:59:23.158Z,1.50
2023-01-31T11:01:50.258Z,1.83
2023-01-31T11:04:38.723Z,2.55
2023-01-31T11:07:08.239Z,1.42
2023-01-31T11:09:40.177Z,2.47
2023-01-31T11:12:08.477Z,2.05
2023-01-31T11:14:36.358Z,1.80
2023-01-31T11:17:07.168Z,1.98
2023-01-31T11:19:40.910Z,2.00
2023-01-31T11:22:08.159Z,1.70
2023-01-31T11:24:41.183Z,2.13
2023-01-31T11:27:11.317Z,1.40
2023-01-31T11:29:48.002Z,2.17
2023-01-31T11:32:21.438Z,1.52
2023-01-31T11:34:57.189Z,1.55
2023-01-31T11:37:29.436Z,1.80
2023-01-31T11:39:55.778Z,1.33
2023-01-31T11:42:22.225Z,1.85
2023-01-31T11:44:59.128Z,1.27
2023-01-31T11:47:41.712Z,1.35
2023-01-31T11:50:20.147Z,1.52
2023-01-31T11:52:47.095Z,1.60
2023-01-31T11:55:18.005Z,1.17
2023-01-31T11:57:45.249Z,1.13
2023-01-31T12:00:42.848Z,1.33
2023-01-31T12:03:16.566Z,1.48
2023-01-31T12:05:46.261Z,1.33
2023-01-31T12:08:33.598Z,1.23
2023-01-31T12:11:05.065Z,1.30
2023-01-31T12:13:32.187Z,1.13
2023-01-31T12:16:00.866Z,1.15
2023-01-31T12:18:39.427Z,1.30
2023-01-31T12:21:27.173Z,1.30
2023-01-31T12:24:18.556Z,0.75
2023-01-31T12:27:02.322Z,0.93
2023-01-31T12:29:42.513Z,0.98
2023-01-31T12:32:16.469Z,1.07
2023-01-31T12:35:00.508Z,1.35
2023-01-31T12:37:49.377Z,1.55
2023-01-31T12:40:47.289Z,0.90
2023-01-31T12:43:35.454Z,1.15
2023-01-31T12:46:20.813Z,0.77
2023-01-31T12:49:21.054Z,1.35
2023-01-31T12:52:05.774Z,1.10
2023-01-31T12:54:46.738Z,1.17
2023-01-31T12:57:50.840Z,0.95
2023-01-31T13:00:52.628Z,0.87
2023-01-31T13:03:47.117Z,1.35
2023-01-31T13:06:18.483Z,1.02
2023-01-31T13:09:07.212Z,0.75
2023-01-31T13:11:48.897Z,1.10
2023-01-31T13:14:19.894Z,0.63
2023-01-31T13:16:49.186Z,1.10
2023-01-31T13:19:22.042Z,0.73
2023-01-31T13:21:55.369Z,0.90
2023-01-31T13:24:27.174Z,0.75
2023-01-31T13:27:03.475Z,0.73
2023-01-31T13:29:43.617Z,0.75
2023-01-31T13:32:15.893Z,1.00
2023-01-31T13:34:56.051Z,0.50
2023-01-31T13:37:23.176Z,1.10
2023-01-31T13:39:55.685Z,0.93
2023-01-31T13:42:22.116Z,0.93
2023-01-31T13:44:49.985Z,1.50
2023-01-31T13:47:23.238Z,0.75
2023-01-31T13:49:49.611Z,0.75
2023-01-31T13:52:40.119Z,1.00
2023-01-31T13:55:15.623Z,1.08
2023-01-31T13:57:52.799Z,1.13
2023-01-31T14:00:43.303Z,0.52
2023-01-31T14:03:13.493Z,1.23
2023-01-31T14:05:43.039Z,0.70
2023-01-31T14:08:35.869Z,1.33
2023-01-31T14:11:29.524Z,0.82
2023-01-31T14:14:19.998Z,0.90
2023-01-31T14:16:50.359Z,1.23
2023-01-31T14:19:23.884Z,0.93
2023-01-31T14:22:03.915Z,0.52
2023-01-31T14:24:56.564Z,0.50
2023-01-31T14:27:26.752Z,0.63
2023-01-31T14:30:19.516Z,0.95
2023-01-31T14:32:58.412Z,1.57
2023-01-31T14:35:50.007Z,0.85
2023-01-31T14:38:19.356Z,1.48
2023-01-31T14:41:06.422Z,0.70
2023-01-31T14:43:49.353Z,0.68
2023-01-31T14:46:48.050Z,0.70
2023-01-31T14:49:32.436Z,0.40
2023-01-31T14:52:09.112Z,1.15
2023-01-31T14:55:09.355Z,0.55
2023-01-31T14:57:48.708Z,0.75
2023-01-31T15:00:15.077Z,0.70
2023-01-31T15:02:48.979Z,0.70
2023-01-31T15:05:25.521Z,0.68
2023-01-31T15:08:27.197Z,1.05
2023-01-31T15:11:04.036Z,0.90
2023-01-31T15:13:48.127Z,1.03
2023-01-31T15:16:20.685Z,1.58
2023-01-31T15:18:54.389Z,0.75
2023-01-31T15:21:33.107Z,1.05
2023-01-31T15:24:00.809Z,1.05
2023-01-31T15:26:32.748Z,0.70
2023-01-31T15:29:01.602Z,0.80
2023-01-31T15:31:40.920Z,0.90
2023-01-31T15:34:19.195Z,1.00
2023-01-31T15:36:58.431Z,0.70
2023-01-31T15:39:40.540Z,0.83
2023-01-31T15:42:28.356Z,0.90
2023-01-31T15:45:20.047Z,1.45
2023-01-31T15:47:57.193Z,1.15
2023-01-31T15:50:24.711Z,0.77
2023-01-31T15:52:51.164Z,0.70
2023-01-31T15:55:19.699Z,1.05
2023-01-31T15:57:52.740Z,1.38
2023-01-31T16:00:26.678Z,0.77
2023-01-31T16:03:00.889Z,0.68
2023-01-31T16:05:39.977Z,1.07
2023-01-31T16:08:29.288Z,0.73
2023-01-31T16:10:57.486Z,1.00
2023-01-31T16:13:26.123Z,0.60
2023-01-31T16:15:53.202Z,0.40
2023-01-31T16:18:20.146Z,1.00
2023-01-31T16:20:54.671Z,1.25
2023-01-31T16:23:24.103Z,1.05
2023-01-31T16:25:56.332Z,0.40
2023-01-31T16:28:24.572Z,0.73
2023-01-31T16:30:51.596Z,0.40
2023-01-31T16:33:22.852Z,0.70
2023-01-31T16:36:12.884Z,0.63
2023-01-31T16:38:42.920Z,1.15
2023-01-31T16:41:12.884Z,1.00
2023-01-31T16:43:43.152Z,1.13
2023-01-31T16:46:37.138Z,1.30
2023-01-31T16:49:20.965Z,1.55
2023-01-31T16:51:48.284Z,1.88
2023-01-31T16:54:24.308Z,1.23
2023-01-31T16:57:38.081Z,1.10
2023-01-31T17:00:27.526Z,1.63
2023-01-31T17:02:56.559Z,1.13
2023-01-31T17:05:29.344Z,1.30
2023-01-31T17:07:57.619Z,1.23
2023-01-31T17:10:28.010Z,1.00
2023-01-31T17:13:14.306Z,1.58
2023-01-31T17:15:41.019Z,1.58
2023-01-31T17:18:10.542Z,1.52
2023-01-31T17:20:39.620Z,1.35
2023-01-31T17:23:06.477Z,1.00
2023-01-31T17:25:34.950Z,1.42
2023-01-31T17:28:02.280Z,0.60
2023-01-31T17:30:30.547Z,1.38
2023-01-31T17:32:58.260Z,1.38
2023-01-31T17:35:29.688Z,1.13
2023-01-31T17:37:56.151Z,1.30
2023-01-31T17:40:22.750Z,1.55
2023-01-31T17:42:52.354Z,0.80
2023-01-31T17:45:19.661Z,1.60
2023-01-31T17:47:46.610Z,1.93
2023-01-31T17:50:21.383Z,1.27
2023-01-31T17:52:48.036Z,1.30
2023-01-31T17:55:14.714Z,0.85
2023-01-31T17:57:41.418Z,1.10
2023-01-31T18:00:11.860Z,0.90
2023-01-31T18:02:42.258Z,1.20
2023-01-31T18:05:10.810Z,0.98
2023-01-31T18:07:37.944Z,0.90
2023-01-31T18:10:06.080Z,0.80
2023-01-31T18:12:35.410Z,1.20
2023-01-31T18:15:02.683Z,1.17
2023-01-31T18:17:29.121Z,1.23
2023-01-31T18:19:55.801Z,0.95
2023-01-31T18:22:23.340Z,1.98
2023-01-31T18:24:49.747Z,1.37
2023-01-31T18:27:16.969Z,1.38
2023-01-31T18:29:43.474Z,1.83
2023-01-31T18:32:10.688Z,0.82
2023-01-31T18:34:37.985Z,0.95
2023-01-31T18:37:10.174Z,1.13
2023-01-31T18:39:36.628Z,1.27
2023-01-31T18:42:03.051Z,1.80
2023-01-31T18:44:29.473Z,1.38
2023-01-31T18:46:55.940Z,1.40
2023-01-31T18:49:22.512Z,1.10
2023-01-31T18:51:49.814Z,1.50
2023-01-31T18:54:16.890Z,1.70
2023-01-31T18:56:44.619Z,1.70
2023-01-31T18:59:11.062Z,1.65
2023-01-31T19:01:37.591Z,1.77
2023-01-31T19:04:04.157Z,1.00
2023-01-31T19:06:37.961Z,1.27
2023-01-31T19:09:06.333Z,0.82
2023-01-31T19:11:32.851Z,1.05
2023-01-31T19:14:04.478Z,1.33
2023-01-31T19:16:31.118Z,1.63
2023-01-31T19:18:57.646Z,1.13
2023-01-31T19:21:31.256Z,1.23
2023-01-31T19:23:59.737Z,1.63
2023-01-31T19:26:26.947Z,0.93
2023-01-31T19:28:53.856Z,1.20
2023-01-31T19:31:22.773Z,1.13
2023-01-31T19:33:51.473Z,1.35
2023-01-31T19:36:26.840Z,1.27
2023-01-31T19:38:53.386Z,0.87
2023-01-31T19:41:22.045Z,1.52
2023-01-31T19:43:50.423Z,1.35
2023-01-31T19:46:17.801Z,1.10
2023-01-31T19:48:44.727Z,1.23
2023-01-31T19:51:13.965Z,0.90
2023-01-31T19:53:40.870Z,0.90
2023-01-31T19:56:08.286Z,1.60
2023-01-31T19:58:34.728Z,1.30
2023-01-31T20:01:03.157Z,1.42
2023-01-31T20:03:29.735Z,0.83
2023-01-31T20:06:05.468Z,1.65
2023-01-31T20:08:32.208Z,1.27
2023-01-31T20:10:58.603Z,1.10
2023-01-31T20:13:25.200Z,1.15
2023-01-31T20:16:06.713Z,1.10
2023-01-31T20:18:34.245Z,0.85
2023-01-31T20:21:01.197Z,1.17
2023-01-31T20:23:29.101Z,1.08
2023-01-31T20:25:56.280Z,1.00
2023-01-31T20:28:23.620Z,0.77
2023-01-31T20:30:50.297Z,0.77
2023-01-31T20:33:17.202Z,1.58
2023-01-31T20:35:43.747Z,1.05
2023-01-31T20:38:11.385Z,1.23
2023-01-31T20:40:38.770Z,1.37
2023-01-31T20:43:06.684Z,1.75
2023-01-31T20:45:33.659Z,1.20
2023-01-31T20:48:00.527Z,1.15
2023-01-31T20:50:27.917Z,1.05
2023-01-31T20:52:55.683Z,1.70
2023-01-31T20:55:23.540Z,1.20
2023-01-31T20:57:51.182Z,1.02
2023-01-31T21:00:19.052Z,2.10
2023-01-31T21:02:46.193Z,1.90
2023-01-31T21:05:13.232Z,1.17
2023-01-31T21:07:39.968Z,0.93
2023-01-31T21:10:07.273Z,0.70
2023-01-31T21:12:33.997Z,1.05
2023-01-31T21:15:00.470Z,1.10
2023-01-31T21:17:39.134Z,1.33
2023-01-31T21:20:07.612Z,0.70
2023-01-31T21:22:34.332Z,1.20
2023-01-31T21:25:00.894Z,0.63
2023-01-31T21:27:27.571Z,1.10
2023-01-31T21:29:53.997Z,1.17
2023-01-31T21:32:20.480Z,0.73
2023-01-31T21:34:46.915Z,1.05
2023-01-31T21:37:13.386Z,1.35
2023-01-31T21:39:39.833Z,0.88
2023-01-31T21:42:15.468Z,0.80
2023-01-31T21:44:43.225Z,0.98
2023-01-31T21:47:09.802Z,1.10
2023-01-31T21:49:36.539Z,0.85
2023-01-31T21:52:03.380Z,1.10
2023-01-31T21:54:29.833Z,1.13
2023-01-31T21:56:56.488Z,0.73
2023-01-31T21:59:23.104Z,1.60
2023-01-31T22:01:51.510Z,0.95
2023-01-31T22:04:20.884Z,0.68
2023-01-31T22:06:48.594Z,1.10
2023-01-31T22:09:15.695Z,0.90
2023-01-31T22:11:42.736Z,0.95
2023-01-31T22:14:14.261Z,1.10
2023-01-31T22:16:41.360Z,1.02
2023-01-31T22:19:08.146Z,0.90
2023-01-31T22:21:37.025Z,0.93
2023-01-31T22:24:06.017Z,0.98
2023-01-31T22:26:36.035Z,0.70
2023-01-31T22:29:04.831Z,0.75
2023-01-31T22:31:32.309Z,0.60
2023-01-31T22:34:00.170Z,0.80
2023-01-31T22:36:26.791Z,1.25
2023-01-31T22:38:53.772Z,0.93
2023-01-31T22:41:20.451Z,1.08
2023-01-31T22:43:49.371Z,0.90
2023-01-31T22:46:22.047Z,0.68
2023-01-31T22:48:49.528Z,0.85
2023-01-31T22:51:19.386Z,1.10
2023-01-31T22:53:46.179Z,0.90
2023-01-31T22:56:17.358Z,1.63
2023-01-31T22:58:43.910Z,1.65
2023-01-31T23:01:15.895Z,1.33
2023-01-31T23:03:43.098Z,0.70
2023-01-31T23:06:10.949Z,1.10
2023-01-31T23:08:38.002Z,0.70
2023-01-31T23:11:12.033Z,1.15
2023-01-31T23:13:39.304Z,1.05
2023-01-31T23:16:07.364Z,1.10
2023-01-31T23:18:34.716Z,1.05
2023-01-31T23:21:08.973Z,0.93
2023-01-31T23:23:35.664Z,1.10
2023-01-31T23:26:02.222Z,1.40
2023-01-31T23:28:28.678Z,1.33
2023-01-31T23:30:55.158Z,0.60
2023-01-31T23:33:22.004Z,1.03
2023-01-31T23:35:49.582Z,1.08
2023-01-31T23:38:16.124Z,1.15
2023-01-31T23:40:42.869Z,1.25
2023-01-31T23:43:09.751Z,0.75
2023-01-31T23:45:36.166Z,1.27
2023-01-31T23:48:02.578Z,1.10
2023-01-31T23:50:28.939Z,1.15
2023-01-31T23:52:55.291Z,0.70
2023-01-31T23:55:22.796Z,1.05
2023-01-31T23:57:50.320Z,1.33
